• Join FlightAware (Why Join?)
  • Login
  • US Flag 
05:58AM EDT


 

Airport Tracker/Info


-or-


 

Live Flight TrackerFlight Track Log ✈ C-GIRL ✈ 27-Oct-2013 ✈ CYHU - CYLQ

Flight Track Log - Related Links

Times and Time Zones

All times are in EDT time to prevent confusion due to time zone crossing. See the C-GIRL flight status page for this flight to view local times or setup timezone preferences in your user account.

Time Position Orientation Groundspeed Altitude Reporting Facility
EDT Latitude Longitude Course Direction KTS MPH feet Rate Location/Type
12:10PM 45.4833 -73.4667 13° North 180 207 3,000  Level Montreal Center
12:11PM 45.4333 -73.5167 215° Southwest 200 230 3,000  Level Montreal Center
12:12PM 45.3667 -73.4833 161° South 200 230 3,000  Level Montreal Center
12:13PM 45.3333 -73.5167 215° Southwest 180 207 3,000  Level Montreal Center
12:14PM 45.2667 -73.5333 190° South 190 219 3,000 -60 Level Montreal Center
12:15PM 45.9216 -73.2865 13° North  Level Estimated
12:15PM 45.2167 -73.5500 193° South 200 230 2,900  Level Montreal Center
12:16PM 45.1667 -73.5167 155° Southeast 190 219 3,000  Climbing Montreal Center
12:17PM 45.1333 -73.4833 145° Southeast 170 196 3,000 -60 Level Montreal Center
12:18PM 45.1333 -73.4333 90° East 160 184 2,900 -120 Descending Montreal Center
12:19PM 45.1667 -73.3833 47° Northeast 160 184 2,800 -360 Descending Montreal Center
12:20PM 45.2167 -73.3500 25° Northeast 170 196 2,200 -780 Descending Montreal Center
12:21PM 45.2333 -73.3333 35° Northeast 140 161 1,300 -720 Descending Montreal Center
12:22PM 45.2667 -73.2833 47° Northeast 150 173 800 -360 Descending Montreal Center
12:23PM 45.3000 -73.2500 35° Northeast 150 173 600 -60 Descending Montreal Center
12:24PM 45.2833 -73.2333 145° Southeast 110 127 700  Climbing Montreal Center
12:25PM 45.2833 -73.2833 270° West 120 138 600 1,200 Descending Montreal Center
12:26PM 45.3167 -73.3167 325° Northwest 180 207 3,100 1,680 Climbing Montreal Center
12:27PM 45.3667 -73.3500 335° Northwest 190 219 4,000 420 Climbing Montreal Center
12:28PM 45.4000 -73.3833 325° Northwest 180 207 4,000  Level Montreal Center
12:29PM 45.4500 -73.4333 325° Northwest 170 196 4,000 -60 Level Montreal Center
12:30PM 45.5000 -73.4500 347° North 200 230 3,900 -300 Descending Montreal Center
12:31PM 45.5500 -73.5000 325° Northwest 200 230 3,500 -540 Descending Montreal Center
12:32PM 45.5833 -73.5500 314° West 180 207 2,900 -600 Descending Montreal Center
12:33PM 45.5333 -73.6000 215° Southwest 170 196 2,300 -720 Descending Montreal Center
12:34PM 45.5167 -73.6500 245° Southwest 130 150 1,500 -780 Descending Montreal Center
12:35PM 45.4833 -73.6667 199° South 110 127 800 -660 Descending Montreal Center
12:36PM 45.4667 -73.7000 235° Southwest 110 127 200 -360 Descending Montreal Center
12:37PM 45.4667 -73.7167 270° West 10 12 100 -120 Descending Montreal Center
12:39PM 45.4667 -73.7333 229° Southwest  Level FlightAware Approximate
12:46PM 45.7413 -73.6041 229° Southwest  Level Estimated
12:47PM 45.7805 -73.5855 229° Southwest  Level Estimated
12:48PM 45.8198 -73.5669 229° Southwest  Level Estimated
12:49PM 45.8590 -73.5483 229° Southwest  Level Estimated
12:50PM 45.8982 -73.5296 229° Southwest  Level Estimated
12:51PM 45.9374 -73.5110 229° Southwest  Level Estimated
12:52PM 45.9766 -73.4923 229° Southwest  Level Estimated
12:53PM 46.0158 -73.4735 229° Southwest  Level Estimated
12:54PM 46.0550 -73.4548 229° Southwest  Level Estimated
12:55PM 46.0942 -73.4360 229° Southwest  Level Estimated
12:56PM 46.1334 -73.4172 229° Southwest  Level Estimated
12:57PM 46.1726 -73.3984 229° Southwest  Level Estimated
12:58PM 46.2118 -73.3795 229° Southwest  Level Estimated
12:59PM 46.2510 -73.3606 229° Southwest  Level Estimated
01:00PM 46.2902 -73.3417 229° Southwest  Level Estimated
01:01PM 46.3293 -73.3228 229° Southwest  Level Estimated
01:02PM 46.3685 -73.3038 229° Southwest  Level Estimated
01:03PM 46.4077 -73.2848 229° Southwest  Level Estimated
01:04PM 46.4469 -73.2658 229° Southwest  Level Estimated
01:05PM 46.4860 -73.2467 229° Southwest  Level Estimated
01:06PM 46.5252 -73.2277 229° Southwest  Level Estimated
01:07PM 46.5644 -73.2085 229° Southwest  Level Estimated
01:08PM 46.6035 -73.1894 229° Southwest  Level Estimated
01:09PM 46.6427 -73.1703 229° Southwest  Level Estimated
01:10PM 46.6818 -73.1511 229° Southwest  Level Estimated
01:11PM 46.7210 -73.1319 229° Southwest  Level Estimated
01:12PM 46.7601 -73.1126 229° Southwest  Level Estimated
01:13PM 46.7993 -73.0933 229° Southwest  Level Estimated
01:14PM 46.8384 -73.0740 229° Southwest  Level Estimated
01:15PM 46.8776 -73.0547 229° Southwest  Level Estimated
01:16PM 46.9167 -73.0353 229° Southwest  Level Estimated
01:17PM 46.9558 -73.0160 229° Southwest  Level Estimated
01:18PM 46.9949 -72.9966 229° Southwest  Level Estimated
01:19PM 47.0341 -72.9771 229° Southwest  Level Estimated
01:20PM 47.0732 -72.9576 229° Southwest  Level Estimated
01:21PM 47.1123 -72.9381 229° Southwest  Level Estimated
01:22PM 47.1514 -72.9186 229° Southwest  Level Estimated